Time,TemperatureF,DewpointF,PressureIn,WindDirection,WindDirectionDegrees,WindSpeedMPH,WindSpeedGustMPH,Humidity,HourlyPrecipIn,Conditions,Clouds,dailyrainin,SoftwareType,DateUTC
2013-01-08 00:04:00,26.1,20.5,29.28,South,180,0.0,2.0,79,0.00,,,0.00,meteohub,2013-01-08 06:04:00,
2013-01-08 00:09:00,25.9,20.3,29.28,South,180,0.0,2.0,79,0.00,,,0.00,meteohub,2013-01-08 06:09:00,
2013-01-08 00:15:00,25.9,20.3,29.28,South,180,1.0,2.0,79,0.00,,,0.00,meteohub,2013-01-08 06:15:00,
2013-01-08 00:20:00,25.9,20.3,29.28,South,180,0.0,2.0,79,0.00,,,0.00,meteohub,2013-01-08 06:20:00,
2013-01-08 00:25:00,25.9,20.3,29.28,South,180,0.0,1.0,79,0.00,,,0.00,meteohub,2013-01-08 06:25:00,
2013-01-08 00:30:00,25.7,20.1,29.28,South,180,0.0,1.0,79,0.00,,,0.00,meteohub,2013-01-08 06:30:00,
2013-01-08 00:35:00,25.7,20.1,29.25,South,180,0.0,0.0,79,0.00,,,0.00,meteohub,2013-01-08 06:35:00,
2013-01-08 00:40:00,25.5,19.6,29.25,South,180,0.0,0.0,78,0.00,,,0.00,meteohub,2013-01-08 06:40:00,
2013-01-08 00:45:00,25.3,19.4,29.25,South,180,0.0,0.0,78,0.00,,,0.00,meteohub,2013-01-08 06:45:00,
2013-01-08 00:50:00,25.2,19.2,29.25,South,180,0.0,0.0,78,0.00,,,0.00,meteohub,2013-01-08 06:50:00,
2013-01-08 00:55:00,25.0,19.0,29.25,SE,135,0.0,0.0,78,0.00,,,0.00,meteohub,2013-01-08 06:55:00,
2013-01-08 01:00:00,24.4,18.5,29.25,SE,135,0.0,0.0,78,0.00,,,0.00,meteohub,2013-01-08 07:00:00,
2013-01-08 01:06:00,24.3,18.3,29.25,SE,135,0.0,0.0,78,0.00,,,0.00,meteohub,2013-01-08 07:06:00,
2013-01-08 01:11:00,24.1,18.3,29.25,NNW,338,0.0,0.0,78,0.00,,,0.00,meteohub,2013-01-08 07:11:00,
2013-01-08 01:16:00,23.9,18.1,29.28,NNW,338,0.0,2.0,78,0.00,,,0.00,meteohub,2013-01-08 07:16:00,
2013-01-08 01:21:00,23.9,18.1,29.28,NNW,338,0.0,2.0,78,0.00,,,0.00,meteohub,2013-01-08 07:21:00,
2013-01-08 01:26:00,23.9,18.1,29.28,NNW,338,0.0,2.0,78,0.00,,,0.00,meteohub,2013-01-08 07:26:00,
2013-01-08 01:31:00,23.7,18.0,29.28,NNW,338,0.0,0.0,78,0.00,,,0.00,meteohub,2013-01-08 07:31:00,
2013-01-08 01:36:00,23.5,18.0,29.28,NNW,338,0.0,0.0,79,0.00,,,0.00,meteohub,2013-01-08 07:36:00,
2013-01-08 01:41:00,23.5,17.8,29.28,NNW,338,0.0,0.0,78,0.00,,,0.00,meteohub,2013-01-08 07:41:00,
2013-01-08 01:46:00,23.4,17.8,29.28,NNW,338,0.0,0.0,79,0.00,,,0.00,meteohub,2013-01-08 07:46:00,
2013-01-08 01:51:00,23.4,17.8,29.28,NE,45,0.0,0.0,79,0.00,,,0.00,meteohub,2013-01-08 07:51:00,
2013-01-08 01:56:00,23.2,17.6,29.28,NE,45,0.0,0.0,79,0.00,,,0.00,meteohub,2013-01-08 07:56:00,
2013-01-08 02:01:00,23.0,17.4,29.28,NNE,22,0.0,0.0,79,0.00,,,0.00,meteohub,2013-01-08 08:01:00,
2013-01-08 02:07:00,23.0,17.4,29.28,NNE,22,0.0,0.0,79,0.00,,,0.00,meteohub,2013-01-08 08:07:00,
2013-01-08 02:12:00,22.8,17.2,29.28,East,90,0.0,0.0,79,0.00,,,0.00,meteohub,2013-01-08 08:12:00,
2013-01-08 02:17:00,22.8,17.2,29.25,NE,45,0.0,0.0,79,0.00,,,0.00,meteohub,2013-01-08 08:17:00,
2013-01-08 02:22:00,22.8,17.2,29.25,NE,45,0.0,0.0,79,0.00,,,0.00,meteohub,2013-01-08 08:22:00,
2013-01-08 02:27:00,22.6,17.1,29.25,East,90,0.0,0.0,79,0.00,,,0.00,meteohub,2013-01-08 08:27:00,
2013-01-08 02:32:00,22.5,16.9,29.28,ESE,112,0.0,0.0,79,0.00,,,0.00,meteohub,2013-01-08 08:32:00,
2013-01-08 02:37:00,22.3,16.7,29.28,SE,135,0.0,0.0,79,0.00,,,0.00,meteohub,2013-01-08 08:37:00,
2013-01-08 02:42:00,22.1,16.5,29.28,SE,135,0.0,0.0,79,0.00,,,0.00,meteohub,2013-01-08 08:42:00,
2013-01-08 02:47:00,22.1,16.5,29.28,SE,135,0.0,0.0,79,0.00,,,0.00,meteohub,2013-01-08 08:47:00,
2013-01-08 02:52:00,22.1,16.5,29.28,SE,135,0.0,0.0,79,0.00,,,0.00,meteohub,2013-01-08 08:52:00,
2013-01-08 02:57:00,22.1,16.5,29.28,NNW,338,0.0,0.0,79,0.00,,,0.00,meteohub,2013-01-08 08:57:00,
2013-01-08 03:02:00,21.9,16.3,29.28,NNW,338,0.0,0.0,79,0.00,,,0.00,meteohub,2013-01-08 09:02:00,
2013-01-08 03:07:00,21.9,16.3,29.28,NNW,338,0.0,0.0,79,0.00,,,0.00,meteohub,2013-01-08 09:07:00,
2013-01-08 03:12:00,21.9,16.3,29.28,North,0,0.0,0.0,79,0.00,,,0.00,meteohub,2013-01-08 09:12:00,
2013-01-08 03:17:00,21.9,16.3,29.28,NW,315,0.0,0.0,79,0.00,,,0.00,meteohub,2013-01-08 09:17:00,
2013-01-08 03:22:00,21.9,16.3,29.28,NW,315,0.0,2.0,79,0.00,,,0.00,meteohub,2013-01-08 09:22:00,
2013-01-08 03:27:00,21.9,16.7,29.28,NW,315,0.0,2.0,80,0.00,,,0.00,meteohub,2013-01-08 09:27:00,
2013-01-08 03:32:00,21.7,16.2,29.28,East,90,0.0,2.0,79,0.00,,,0.00,meteohub,2013-01-08 09:32:00,
2013-01-08 03:37:00,21.7,16.2,29.28,ENE,68,0.0,0.0,79,0.00,,,0.00,meteohub,2013-01-08 09:37:00,
2013-01-08 03:42:00,21.7,16.2,29.28,ENE,68,0.0,0.0,79,0.00,,,0.00,meteohub,2013-01-08 09:42:00,
2013-01-08 03:48:00,21.6,16.2,29.28,East,90,0.0,0.0,79,0.00,,,0.00,meteohub,2013-01-08 09:48:00,
2013-01-08 03:53:00,21.6,16.2,29.28,East,90,0.0,0.0,79,0.00,,,0.00,meteohub,2013-01-08 09:53:00,
2013-01-08 03:58:00,21.6,16.2,29.28,East,90,0.0,0.0,79,0.00,,,0.00,meteohub,2013-01-08 09:58:00,
2013-01-08 04:03:00,21.4,16.0,29.28,South,180,0.0,0.0,79,0.00,,,0.00,meteohub,2013-01-08 10:03:00,
2013-01-08 04:08:00,21.2,16.0,29.28,South,180,0.0,0.0,80,0.00,,,0.00,meteohub,2013-01-08 10:08:00,
2013-01-08 04:13:00,21.2,16.0,29.28,SSE,158,0.0,0.0,80,0.00,,,0.00,meteohub,2013-01-08 10:13:00,
2013-01-08 04:18:00,21.4,16.2,29.28,SSE,158,0.0,0.0,80,0.00,,,0.00,meteohub,2013-01-08 10:18:00,
2013-01-08 04:23:00,21.6,16.3,29.28,SSE,158,0.0,0.0,80,0.00,,,0.00,meteohub,2013-01-08 10:23:00,
2013-01-08 04:28:00,21.6,16.3,29.28,SSE,158,0.0,1.0,80,0.00,,,0.00,meteohub,2013-01-08 10:28:00,
2013-01-08 04:34:00,21.6,16.3,29.28,South,180,1.0,1.0,80,0.00,,,0.00,meteohub,2013-01-08 10:34:00,
2013-01-08 04:39:00,21.7,16.9,29.28,SW,225,1.0,1.0,81,0.00,,,0.00,meteohub,2013-01-08 10:39:00,
2013-01-08 04:44:00,21.9,17.1,29.28,SSW,202,1.0,2.0,81,0.00,,,0.00,meteohub,2013-01-08 10:44:00,
2013-01-08 04:49:00,21.9,17.2,29.28,SSE,158,1.0,2.0,82,0.00,,,0.00,meteohub,2013-01-08 10:49:00,
2013-01-08 04:54:00,22.1,17.4,29.28,NE,45,0.0,2.0,82,0.00,,,0.00,meteohub,2013-01-08 10:54:00,
2013-01-08 04:59:00,22.1,17.4,29.28,SSW,202,0.0,2.0,82,0.00,,,0.00,meteohub,2013-01-08 10:59:00,
2013-01-08 05:04:00,22.3,17.6,29.28,SSW,202,0.0,2.0,82,0.00,,,0.00,meteohub,2013-01-08 11:04:00,
2013-01-08 05:09:00,22.5,17.8,29.28,SSW,202,0.0,1.0,82,0.00,,,0.00,meteohub,2013-01-08 11:09:00,
2013-01-08 05:14:00,22.5,17.8,29.28,SSW,202,0.0,2.0,82,0.00,,,0.00,meteohub,2013-01-08 11:14:00,
2013-01-08 05:19:00,22.5,17.8,29.31,SW,225,0.0,2.0,82,0.00,,,0.00,meteohub,2013-01-08 11:19:00,
2013-01-08 05:25:00,22.6,18.0,29.31,SSW,202,0.0,2.0,82,0.00,,,0.00,meteohub,2013-01-08 11:25:00,
2013-01-08 05:30:00,22.6,18.0,29.31,SSW,202,0.0,1.0,82,0.00,,,0.00,meteohub,2013-01-08 11:30:00,
2013-01-08 05:35:00,22.6,18.0,29.31,SSW,202,0.0,0.0,82,0.00,,,0.00,meteohub,2013-01-08 11:35:00,
2013-01-08 05:40:00,22.6,18.0,29.31,SSW,202,0.0,0.0,82,0.00,,,0.00,meteohub,2013-01-08 11:40:00,
2013-01-08 05:45:00,22.8,18.1,29.31,South,180,1.0,0.0,82,0.00,,,0.00,meteohub,2013-01-08 11:45:00,
2013-01-08 05:50:00,22.8,18.1,29.34,South,180,0.0,1.0,82,0.00,,,0.00,meteohub,2013-01-08 11:50:00,
2013-01-08 05:55:00,22.8,18.1,29.34,SSE,158,1.0,2.0,82,0.00,,,0.00,meteohub,2013-01-08 11:55:00,
2013-01-08 06:01:00,23.0,18.7,29.34,SSE,158,0.0,2.0,83,0.00,,,0.00,meteohub,2013-01-08 12:01:00,
2013-01-08 06:06:00,23.0,18.3,29.31,SSE,158,0.0,2.0,82,0.00,,,0.00,meteohub,2013-01-08 12:06:00,
2013-01-08 06:11:00,23.0,18.3,29.31,SE,135,0.0,2.0,82,0.00,,,0.00,meteohub,2013-01-08 12:11:00,
2013-01-08 06:16:00,23.2,18.5,29.34,South,180,0.0,1.0,82,0.00,,,0.00,meteohub,2013-01-08 12:16:00,
2013-01-08 06:21:00,23.2,18.5,29.34,SSW,202,0.0,2.0,82,0.00,,,0.00,meteohub,2013-01-08 12:21:00,
2013-01-08 06:26:00,23.4,18.7,29.34,South,180,0.0,2.0,82,0.00,,,0.00,meteohub,2013-01-08 12:26:00,
2013-01-08 06:31:00,23.4,18.7,29.34,ENE,68,0.0,1.0,82,0.00,,,0.00,meteohub,2013-01-08 12:31:00,
2013-01-08 06:36:00,23.4,18.7,29.34,South,180,0.0,0.0,82,0.00,,,0.00,meteohub,2013-01-08 12:36:00,
2013-01-08 06:41:00,23.4,18.7,29.34,South,180,0.0,0.0,82,0.00,,,0.00,meteohub,2013-01-08 12:41:00,
2013-01-08 06:46:00,23.5,19.2,29.34,South,180,0.0,1.0,83,0.00,,,0.00,meteohub,2013-01-08 12:46:00,
2013-01-08 06:51:00,23.5,19.2,29.34,South,180,0.0,1.0,83,0.00,,,0.00,meteohub,2013-01-08 12:51:00,
2013-01-08 06:56:00,23.7,19.4,29.34,South,180,1.0,2.0,83,0.00,,,0.00,meteohub,2013-01-08 12:56:00,
2013-01-08 07:02:00,23.9,19.6,29.34,South,180,0.0,2.0,83,0.00,,,0.00,meteohub,2013-01-08 13:02:00,
2013-01-08 07:07:00,23.9,19.6,29.34,South,180,0.0,2.0,83,0.00,,,0.00,meteohub,2013-01-08 13:07:00,
2013-01-08 07:12:00,23.9,19.6,29.34,South,180,0.0,2.0,83,0.00,,,0.00,meteohub,2013-01-08 13:12:00,
2013-01-08 07:17:00,23.9,19.6,29.34,South,180,0.0,1.0,83,0.00,,,0.00,meteohub,2013-01-08 13:17:00,
2013-01-08 07:22:00,23.9,19.6,29.34,SSE,158,0.0,1.0,83,0.00,,,0.00,meteohub,2013-01-08 13:22:00,
2013-01-08 07:27:00,24.1,19.9,29.34,South,180,1.0,1.0,84,0.00,,,0.00,meteohub,2013-01-08 13:27:00,
2013-01-08 07:32:00,24.3,20.1,29.34,South,180,1.0,1.0,84,0.00,,,0.00,meteohub,2013-01-08 13:32:00,
2013-01-08 07:37:00,24.4,20.3,29.34,South,180,0.0,1.0,84,0.00,,,0.00,meteohub,2013-01-08 13:37:00,
2013-01-08 07:42:00,24.4,20.3,29.34,South,180,0.0,1.0,84,0.00,,,0.00,meteohub,2013-01-08 13:42:00,
2013-01-08 07:47:00,24.4,20.7,29.34,South,180,0.0,1.0,85,0.00,,,0.00,meteohub,2013-01-08 13:47:00,
2013-01-08 07:52:00,24.6,20.8,29.34,South,180,0.0,1.0,85,0.00,,,0.00,meteohub,2013-01-08 13:52:00,
2013-01-08 07:57:00,24.8,21.0,29.34,SSW,202,2.0,2.0,85,0.00,,,0.00,meteohub,2013-01-08 13:57:00,
2013-01-08 08:02:00,24.8,21.0,29.34,South,180,0.0,2.0,85,0.00,,,0.00,meteohub,2013-01-08 14:02:00,
2013-01-08 08:07:00,25.0,21.2,29.34,South,180,2.0,2.0,85,0.00,,,0.00,meteohub,2013-01-08 14:07:00,
2013-01-08 08:12:00,25.2,21.4,29.34,South,180,1.0,3.0,85,0.00,,,0.00,meteohub,2013-01-08 14:12:00,
2013-01-08 08:17:00,25.3,21.6,29.31,South,180,0.0,3.0,85,0.00,,,0.00,meteohub,2013-01-08 14:17:00,
2013-01-08 08:22:00,25.7,22.1,29.31,South,180,1.0,4.0,86,0.00,,,0.00,meteohub,2013-01-08 14:22:00,
2013-01-08 08:27:00,26.1,22.8,29.31,South,180,0.0,4.0,87,0.00,,,0.00,meteohub,2013-01-08 14:27:00,
2013-01-08 08:32:00,26.4,23.0,29.31,South,180,1.0,4.0,87,0.00,,,0.00,meteohub,2013-01-08 14:32:00,
2013-01-08 08:37:00,26.6,23.2,29.34,South,180,2.0,4.0,87,0.00,,,0.00,meteohub,2013-01-08 14:37:00,
2013-01-08 08:42:00,27.0,23.4,29.34,SSE,158,1.0,4.0,86,0.00,,,0.00,meteohub,2013-01-08 14:42:00,
2013-01-08 08:47:00,27.5,23.9,29.34,SE,135,2.0,4.0,86,0.00,,,0.00,meteohub,2013-01-08 14:47:00,
2013-01-08 08:52:00,27.7,23.7,29.34,SSE,158,0.0,4.0,85,0.00,,,0.00,meteohub,2013-01-08 14:52:00,
2013-01-08 08:57:00,27.9,23.9,29.34,East,90,0.0,4.0,85,0.00,,,0.00,meteohub,2013-01-08 14:57:00,
2013-01-08 09:02:00,28.0,23.9,29.36,ENE,68,1.0,4.0,84,0.00,,,0.00,meteohub,2013-01-08 15:02:00,
2013-01-08 09:07:00,28.4,24.3,29.36,NE,45,1.0,2.0,84,0.00,,,0.00,meteohub,2013-01-08 15:07:00,
2013-01-08 09:12:00,28.6,24.4,29.36,SE,135,1.0,2.0,84,0.00,,,0.00,meteohub,2013-01-08 15:12:00,
2013-01-08 09:17:00,29.1,24.6,29.36,SSE,158,0.0,2.0,83,0.00,,,0.00,meteohub,2013-01-08 15:17:00,
2013-01-08 09:22:00,29.5,25.0,29.36,East,90,0.0,2.0,83,0.00,,,0.00,meteohub,2013-01-08 15:22:00,
2013-01-08 09:27:00,29.8,25.3,29.36,East,90,0.0,2.0,83,0.00,,,0.00,meteohub,2013-01-08 15:27:00,
2013-01-08 09:32:00,30.2,25.7,29.36,East,90,2.0,2.0,83,0.00,,,0.00,meteohub,2013-01-08 15:32:00,
2013-01-08 09:37:00,30.4,25.5,29.36,SE,135,0.0,2.0,82,0.00,,,0.00,meteohub,2013-01-08 15:37:00,
2013-01-08 09:42:00,30.9,25.9,29.36,ENE,68,0.0,2.0,81,0.00,,,0.00,meteohub,2013-01-08 15:42:00,
2013-01-08 09:47:00,31.5,26.2,29.36,SSE,158,0.0,2.0,81,0.00,,,0.00,meteohub,2013-01-08 15:47:00,
2013-01-08 09:52:00,32.0,26.6,29.36,South,180,2.0,2.0,80,0.00,,,0.00,meteohub,2013-01-08 15:52:00,
2013-01-08 09:57:00,32.5,27.1,29.36,ENE,68,0.0,3.0,80,0.00,,,0.00,meteohub,2013-01-08 15:57:00,
2013-01-08 10:02:00,32.7,27.0,29.36,East,90,1.0,3.0,79,0.00,,,0.00,meteohub,2013-01-08 16:02:00,
2013-01-08 10:07:00,33.1,27.0,29.36,SSE,158,1.0,3.0,78,0.00,,,0.00,meteohub,2013-01-08 16:07:00,
2013-01-08 10:12:00,33.6,27.5,29.36,South,180,2.0,3.0,78,0.00,,,0.00,meteohub,2013-01-08 16:12:00,
2013-01-08 10:17:00,34.0,27.0,29.34,South,180,1.0,4.0,75,0.00,,,0.00,meteohub,2013-01-08 16:17:00,
2013-01-08 10:22:00,34.5,27.1,29.34,South,180,1.0,4.0,74,0.00,,,0.00,meteohub,2013-01-08 16:22:00,
2013-01-08 10:27:00,34.9,26.4,29.34,SW,225,3.0,3.0,71,0.00,,,0.00,meteohub,2013-01-08 16:27:00,
2013-01-08 10:32:00,35.4,27.0,29.34,South,180,1.0,5.0,71,0.00,,,0.00,meteohub,2013-01-08 16:32:00,
2013-01-08 10:37:00,35.6,26.8,29.34,SW,225,3.0,5.0,70,0.00,,,0.00,meteohub,2013-01-08 16:37:00,
2013-01-08 10:42:00,36.0,26.4,29.34,South,180,3.0,4.0,68,0.00,,,0.00,meteohub,2013-01-08 16:42:00,
2013-01-08 10:47:00,36.3,27.1,29.34,SW,225,6.0,7.0,69,0.00,,,0.00,meteohub,2013-01-08 16:47:00,
2013-01-08 10:52:00,36.7,27.1,29.34,SSW,202,4.0,7.0,68,0.00,,,0.00,meteohub,2013-01-08 16:52:00,
2013-01-08 10:57:00,36.9,27.0,29.34,SSW,202,1.0,7.0,67,0.00,,,0.00,meteohub,2013-01-08 16:57:00,
2013-01-08 11:02:00,37.0,27.5,29.34,South,180,2.0,7.0,68,0.00,,,0.00,meteohub,2013-01-08 17:02:00,
2013-01-08 11:07:00,37.2,27.3,29.34,NE,45,2.0,6.0,67,0.00,,,0.00,meteohub,2013-01-08 17:07:00,
2013-01-08 11:12:00,37.4,25.5,29.34,SSW,202,2.0,4.0,62,0.00,,,0.00,meteohub,2013-01-08 17:12:00,
2013-01-08 11:17:00,37.8,26.8,29.34,South,180,3.0,5.0,64,0.00,,,0.00,meteohub,2013-01-08 17:17:00,
2013-01-08 11:22:00,37.9,27.0,29.34,SSW,202,4.0,5.0,64,0.00,,,0.00,meteohub,2013-01-08 17:22:00,
2013-01-08 11:27:00,38.1,27.1,29.34,SSW,202,0.0,6.0,64,0.00,,,0.00,meteohub,2013-01-08 17:27:00,
2013-01-08 11:32:00,38.5,27.0,29.34,South,180,3.0,6.0,63,0.00,,,0.00,meteohub,2013-01-08 17:32:00,
2013-01-08 11:37:00,38.7,27.1,29.34,South,180,0.0,6.0,63,0.00,,,0.00,meteohub,2013-01-08 17:37:00,
2013-01-08 11:42:00,38.7,26.1,29.34,SW,225,3.0,5.0,60,0.00,,,0.00,meteohub,2013-01-08 17:42:00,
2013-01-08 11:47:00,39.0,26.8,29.34,SSE,158,3.0,6.0,61,0.00,,,0.00,meteohub,2013-01-08 17:47:00,
2013-01-08 11:52:00,39.2,26.6,29.34,SW,225,4.0,6.0,60,0.00,,,0.00,meteohub,2013-01-08 17:52:00,
2013-01-08 11:57:00,39.4,26.6,29.34,South,180,1.0,5.0,60,0.00,,,0.00,meteohub,2013-01-08 17:57:00,
2013-01-08 12:02:00,39.6,26.8,29.31,South,180,1.0,5.0,60,0.00,,,0.00,meteohub,2013-01-08 18:02:00,
2013-01-08 12:07:00,39.7,26.6,29.31,South,180,3.0,6.0,59,0.00,,,0.00,meteohub,2013-01-08 18:07:00,
2013-01-08 12:12:00,40.1,27.0,29.31,South,180,3.0,6.0,59,0.00,,,0.00,meteohub,2013-01-08 18:12:00,
2013-01-08 12:17:00,39.9,26.4,29.31,South,180,1.0,6.0,58,0.00,,,0.00,meteohub,2013-01-08 18:17:00,
2013-01-08 12:22:00,39.9,26.4,29.31,South,180,6.0,6.0,58,0.00,,,0.00,meteohub,2013-01-08 18:22:00,
2013-01-08 12:27:00,39.7,26.2,29.31,South,180,4.0,6.0,58,0.00,,,0.00,meteohub,2013-01-08 18:27:00,
2013-01-08 12:32:00,39.9,26.4,29.31,South,180,3.0,6.0,58,0.00,,,0.00,meteohub,2013-01-08 18:32:00,
2013-01-08 12:37:00,40.1,27.0,29.31,South,180,3.0,6.0,59,0.00,,,0.00,meteohub,2013-01-08 18:37:00,
2013-01-08 12:42:00,40.3,27.1,29.31,SSW,202,4.0,6.0,59,0.00,,,0.00,meteohub,2013-01-08 18:42:00,
2013-01-08 12:47:00,40.5,27.3,29.31,South,180,3.0,6.0,59,0.00,,,0.00,meteohub,2013-01-08 18:47:00,
2013-01-08 12:52:00,40.8,27.7,29.31,SSW,202,6.0,6.0,59,0.00,,,0.00,meteohub,2013-01-08 18:52:00,
2013-01-08 12:57:00,41.4,28.2,29.31,SSE,158,6.0,6.0,59,0.00,,,0.00,meteohub,2013-01-08 18:57:00,
2013-01-08 13:02:00,41.5,27.9,29.31,NE,45,7.0,7.0,58,0.00,,,0.00,meteohub,2013-01-08 19:02:00,
2013-01-08 13:07:00,41.5,27.5,29.31,WSW,248,4.0,7.0,57,0.00,,,0.00,meteohub,2013-01-08 19:07:00,
2013-01-08 13:12:00,41.7,27.7,29.31,SSW,202,1.0,7.0,57,0.00,,,0.00,meteohub,2013-01-08 19:12:00,
2013-01-08 13:17:00,41.7,27.7,29.31,South,180,3.0,8.0,57,0.00,,,0.00,meteohub,2013-01-08 19:17:00,
2013-01-08 13:22:00,42.1,28.0,29.31,SSW,202,1.0,8.0,57,0.00,,,0.00,meteohub,2013-01-08 19:22:00,
2013-01-08 13:27:00,42.4,28.4,29.31,SSE,158,2.0,6.0,57,0.00,,,0.00,meteohub,2013-01-08 19:27:00,
2013-01-08 13:32:00,42.4,27.9,29.28,SW,225,4.0,6.0,56,0.00,,,0.00,meteohub,2013-01-08 19:32:00,
2013-01-08 13:37:00,42.4,27.9,29.28,South,180,3.0,6.0,56,0.00,,,0.00,meteohub,2013-01-08 19:37:00,
2013-01-08 13:42:00,42.4,28.4,29.28,SSW,202,2.0,6.0,57,0.00,,,0.00,meteohub,2013-01-08 19:42:00,
2013-01-08 13:47:00,42.8,28.6,29.31,South,180,4.0,6.0,57,0.00,,,0.00,meteohub,2013-01-08 19:47:00,
2013-01-08 13:52:00,43.0,28.4,29.31,South,180,1.0,6.0,56,0.00,,,0.00,meteohub,2013-01-08 19:52:00,
2013-01-08 13:57:00,43.2,28.0,29.31,South,180,3.0,6.0,55,0.00,,,0.00,meteohub,2013-01-08 19:57:00,
2013-01-08 14:02:00,43.2,28.0,29.31,SSW,202,4.0,5.0,55,0.00,,,0.00,meteohub,2013-01-08 20:02:00,
2013-01-08 14:07:00,43.2,28.0,29.31,South,180,4.0,4.0,55,0.00,,,0.00,meteohub,2013-01-08 20:07:00,
2013-01-08 14:12:00,43.0,28.0,29.31,SSW,202,3.0,6.0,55,0.00,,,0.00,meteohub,2013-01-08 20:12:00,
2013-01-08 14:17:00,42.8,27.9,29.31,South,180,4.0,6.0,55,0.00,,,0.00,meteohub,2013-01-08 20:17:00,
2013-01-08 14:22:00,42.8,27.9,29.31,SSW,202,1.0,6.0,55,0.00,,,0.00,meteohub,2013-01-08 20:22:00,
2013-01-08 14:27:00,42.6,28.0,29.31,South,180,1.0,6.0,56,0.00,,,0.00,meteohub,2013-01-08 20:27:00,
2013-01-08 14:32:00,42.6,28.0,29.31,SSW,202,2.0,6.0,56,0.00,,,0.00,meteohub,2013-01-08 20:32:00,
2013-01-08 14:37:00,42.4,28.4,29.31,South,180,4.0,5.0,57,0.00,,,0.00,meteohub,2013-01-08 20:37:00,
2013-01-08 14:42:00,42.4,28.4,29.31,South,180,1.0,5.0,57,0.00,,,0.00,meteohub,2013-01-08 20:42:00,
2013-01-08 14:47:00,42.4,28.4,29.31,SSW,202,3.0,5.0,57,0.00,,,0.00,meteohub,2013-01-08 20:47:00,
2013-01-08 14:52:00,42.4,28.4,29.31,South,180,0.0,4.0,57,0.00,,,0.00,meteohub,2013-01-08 20:52:00,
2013-01-08 14:57:00,42.4,28.8,29.31,South,180,2.0,4.0,58,0.00,,,0.00,meteohub,2013-01-08 20:57:00,
2013-01-08 15:02:00,42.4,28.8,29.31,SSE,158,3.0,3.0,58,0.00,,,0.00,meteohub,2013-01-08 21:02:00,
2013-01-08 15:07:00,42.6,28.9,29.31,SSE,158,0.0,6.0,58,0.00,,,0.00,meteohub,2013-01-08 21:07:00,
2013-01-08 15:12:00,42.8,29.1,29.31,SSE,158,2.0,6.0,58,0.00,,,0.00,meteohub,2013-01-08 21:12:00,
2013-01-08 15:17:00,42.8,29.1,29.31,SE,135,5.0,6.0,58,0.00,,,0.00,meteohub,2013-01-08 21:17:00,
2013-01-08 15:22:00,42.8,29.1,29.31,South,180,1.0,6.0,58,0.00,,,0.00,meteohub,2013-01-08 21:22:00,
2013-01-08 15:27:00,43.0,29.3,29.31,South,180,1.0,6.0,58,0.00,,,0.00,meteohub,2013-01-08 21:27:00,
2013-01-08 15:32:00,42.8,28.6,29.31,South,180,0.0,6.0,57,0.00,,,0.00,meteohub,2013-01-08 21:32:00,
2013-01-08 15:37:00,42.8,29.1,29.31,South,180,0.0,4.0,58,0.00,,,0.00,meteohub,2013-01-08 21:37:00,
2013-01-08 15:42:00,42.8,29.1,29.31,SSE,158,0.0,4.0,58,0.00,,,0.00,meteohub,2013-01-08 21:42:00,
2013-01-08 15:47:00,42.6,28.9,29.31,SE,135,0.0,3.0,58,0.00,,,0.00,meteohub,2013-01-08 21:47:00,
2013-01-08 15:52:00,42.4,28.8,29.31,South,180,0.0,3.0,58,0.00,,,0.00,meteohub,2013-01-08 21:52:00,
2013-01-08 15:57:00,42.3,28.6,29.31,South,180,0.0,3.0,58,0.00,,,0.00,meteohub,2013-01-08 21:57:00,
2013-01-08 16:02:00,42.1,28.8,29.28,SW,225,1.0,2.0,59,0.00,,,0.00,meteohub,2013-01-08 22:02:00,
2013-01-08 16:07:00,42.1,28.8,29.28,SSW,202,0.0,4.0,59,0.00,,,0.00,meteohub,2013-01-08 22:07:00,
2013-01-08 16:12:00,41.7,28.4,29.28,South,180,0.0,4.0,59,0.00,,,0.00,meteohub,2013-01-08 22:12:00,
2013-01-08 16:17:00,41.4,28.2,29.31,South,180,0.0,2.0,59,0.00,,,0.00,meteohub,2013-01-08 22:17:00,
2013-01-08 16:22:00,41.2,28.0,29.31,South,180,0.0,2.0,59,0.00,,,0.00,meteohub,2013-01-08 22:22:00,
2013-01-08 16:27:00,40.8,28.0,29.31,South,180,0.0,2.0,60,0.00,,,0.00,meteohub,2013-01-08 22:27:00,
2013-01-08 16:32:00,40.5,27.7,29.31,South,180,0.0,2.0,60,0.00,,,0.00,meteohub,2013-01-08 22:32:00,
2013-01-08 16:37:00,40.1,27.3,29.31,South,180,0.0,0.0,60,0.00,,,0.00,meteohub,2013-01-08 22:37:00,
2013-01-08 16:42:00,39.6,26.8,29.31,South,180,0.0,0.0,60,0.00,,,0.00,meteohub,2013-01-08 22:42:00,
2013-01-08 16:47:00,39.2,27.0,29.28,South,180,0.0,0.0,61,0.00,,,0.00,meteohub,2013-01-08 22:47:00,
2013-01-08 16:52:00,38.8,26.6,29.28,South,180,0.0,0.0,61,0.00,,,0.00,meteohub,2013-01-08 22:52:00,
2013-01-08 16:57:00,38.5,26.6,29.28,SSE,158,0.0,0.0,62,0.00,,,0.00,meteohub,2013-01-08 22:57:00,
2013-01-08 17:02:00,37.9,26.4,29.28,SE,135,0.0,0.0,63,0.00,,,0.00,meteohub,2013-01-08 23:02:00,
2013-01-08 17:07:00,37.8,26.8,29.28,SW,225,0.0,0.0,64,0.00,,,0.00,meteohub,2013-01-08 23:07:00,
2013-01-08 17:12:00,37.4,26.4,29.28,SW,225,0.0,0.0,64,0.00,,,0.00,meteohub,2013-01-08 23:12:00,
2013-01-08 17:17:00,37.4,26.4,29.28,East,90,0.0,0.0,64,0.00,,,0.00,meteohub,2013-01-08 23:17:00,
2013-01-08 17:22:00,37.0,26.4,29.28,SSE,158,0.0,0.0,65,0.00,,,0.00,meteohub,2013-01-08 23:22:00,
2013-01-08 17:27:00,36.9,26.2,29.28,SSE,158,0.0,0.0,65,0.00,,,0.00,meteohub,2013-01-08 23:27:00,
2013-01-08 17:32:00,36.3,26.1,29.25,SSE,158,0.0,0.0,66,0.00,,,0.00,meteohub,2013-01-08 23:32:00,
2013-01-08 17:37:00,36.1,25.9,29.25,SSE,158,0.0,0.0,66,0.00,,,0.00,meteohub,2013-01-08 23:37:00,
2013-01-08 17:42:00,36.1,26.2,29.25,South,180,0.0,0.0,67,0.00,,,0.00,meteohub,2013-01-08 23:42:00,
2013-01-08 17:48:00,35.8,26.2,29.28,South,180,0.0,0.0,68,0.00,,,0.00,meteohub,2013-01-08 23:48:00,
2013-01-08 17:53:00,35.8,26.2,29.28,East,90,0.0,0.0,68,0.00,,,0.00,meteohub,2013-01-08 23:53:00,
2013-01-08 17:58:00,35.6,26.4,29.28,ENE,68,0.0,0.0,69,0.00,,,0.00,meteohub,2013-01-08 23:58:00,
2013-01-08 18:03:00,35.6,26.4,29.28,SE,135,0.0,0.0,69,0.00,,,0.00,meteohub,2013-01-09 00:03:00,
2013-01-08 18:08:00,35.4,26.2,29.28,SSE,158,0.0,0.0,69,0.00,,,0.00,meteohub,2013-01-09 00:08:00,
2013-01-08 18:13:00,35.2,26.1,29.28,South,180,0.0,0.0,69,0.00,,,0.00,meteohub,2013-01-09 00:13:00,
2013-01-08 18:18:00,34.9,26.1,29.28,South,180,0.0,0.0,70,0.00,,,0.00,meteohub,2013-01-09 00:18:00,
2013-01-08 18:23:00,34.7,25.9,29.28,South,180,0.0,0.0,70,0.00,,,0.00,meteohub,2013-01-09 00:23:00,
2013-01-08 18:28:00,34.7,26.2,29.28,South,180,0.0,0.0,71,0.00,,,0.00,meteohub,2013-01-09 00:28:00,
2013-01-08 18:33:00,34.5,26.1,29.28,East,90,0.0,0.0,71,0.00,,,0.00,meteohub,2013-01-09 00:33:00,
2013-01-08 18:39:00,34.5,26.4,29.28,ENE,68,0.0,0.0,72,0.00,,,0.00,meteohub,2013-01-09 00:39:00,
2013-01-08 18:44:00,34.3,26.2,29.28,ESE,112,0.0,0.0,72,0.00,,,0.00,meteohub,2013-01-09 00:44:00,
2013-01-08 18:49:00,34.2,26.1,29.31,SSE,158,0.0,0.0,72,0.00,,,0.00,meteohub,2013-01-09 00:49:00,
2013-01-08 18:54:00,34.0,25.9,29.31,SSE,158,0.0,0.0,72,0.00,,,0.00,meteohub,2013-01-09 00:54:00,
2013-01-08 18:59:00,34.0,26.2,29.31,SSE,158,0.0,0.0,73,0.00,,,0.00,meteohub,2013-01-09 00:59:00,
2013-01-08 19:04:00,33.8,26.1,29.28,ENE,68,0.0,0.0,73,0.00,,,0.00,meteohub,2013-01-09 01:04:00,
2013-01-08 19:09:00,33.8,26.1,29.28,NE,45,0.0,0.0,73,0.00,,,0.00,meteohub,2013-01-09 01:09:00,
2013-01-08 19:14:00,33.8,26.1,29.28,SSE,158,0.0,0.0,73,0.00,,,0.00,meteohub,2013-01-09 01:14:00,
2013-01-08 19:19:00,33.6,26.2,29.28,SSE,158,0.0,0.0,74,0.00,,,0.00,meteohub,2013-01-09 01:19:00,
2013-01-08 19:24:00,33.4,26.1,29.28,SSW,202,0.0,0.0,74,0.00,,,0.00,meteohub,2013-01-09 01:24:00,
2013-01-08 19:30:00,33.3,25.9,29.28,South,180,0.0,0.0,74,0.00,,,0.00,meteohub,2013-01-09 01:30:00,
2013-01-08 19:35:00,33.3,25.9,29.28,SSW,202,0.0,0.0,74,0.00,,,0.00,meteohub,2013-01-09 01:35:00,
2013-01-08 19:40:00,33.1,26.1,29.28,South,180,0.0,0.0,75,0.00,,,0.00,meteohub,2013-01-09 01:40:00,
2013-01-08 19:45:00,33.1,26.1,29.28,SSW,202,0.0,0.0,75,0.00,,,0.00,meteohub,2013-01-09 01:45:00,
2013-01-08 19:50:00,33.1,26.1,29.28,SSW,202,0.0,0.0,75,0.00,,,0.00,meteohub,2013-01-09 01:50:00,
2013-01-08 19:55:00,32.9,25.9,29.28,South,180,0.0,0.0,75,0.00,,,0.00,meteohub,2013-01-09 01:55:00,
2013-01-08 20:00:00,32.7,25.7,29.28,South,180,0.0,0.0,75,0.00,,,0.00,meteohub,2013-01-09 02:00:00,
2013-01-08 20:05:00,32.5,25.5,29.28,South,180,0.0,0.0,75,0.00,,,0.00,meteohub,2013-01-09 02:05:00,
2013-01-08 20:10:00,32.2,25.2,29.28,South,180,0.0,1.0,75,0.00,,,0.00,meteohub,2013-01-09 02:10:00,
2013-01-08 20:15:00,32.0,25.0,29.28,South,180,0.0,1.0,75,0.00,,,0.00,meteohub,2013-01-09 02:15:00,
2013-01-08 20:21:00,31.8,24.8,29.28,South,180,0.0,1.0,75,0.00,,,0.00,meteohub,2013-01-09 02:21:00,
2013-01-08 20:26:00,31.6,25.0,29.28,East,90,0.0,0.0,76,0.00,,,0.00,meteohub,2013-01-09 02:26:00,
2013-01-08 20:31:00,31.6,25.0,29.28,East,90,0.0,0.0,76,0.00,,,0.00,meteohub,2013-01-09 02:31:00,
2013-01-08 20:36:00,31.6,25.3,29.28,South,180,0.0,0.0,77,0.00,,,0.00,meteohub,2013-01-09 02:36:00,
2013-01-08 20:41:00,31.5,24.8,29.28,ENE,68,0.0,0.0,76,0.00,,,0.00,meteohub,2013-01-09 02:41:00,
2013-01-08 20:46:00,31.5,25.2,29.28,ENE,68,0.0,0.0,77,0.00,,,0.00,meteohub,2013-01-09 02:46:00,
2013-01-08 20:51:00,31.3,25.0,29.28,NW,315,0.0,0.0,77,0.00,,,0.00,meteohub,2013-01-09 02:51:00,
2013-01-08 20:56:00,31.3,25.0,29.28,North,0,0.0,0.0,77,0.00,,,0.00,meteohub,2013-01-09 02:56:00,
2013-01-08 21:01:00,31.3,25.0,29.28,NNW,338,0.0,0.0,77,0.00,,,0.00,meteohub,2013-01-09 03:01:00,
2013-01-08 21:07:00,31.1,24.8,29.28,SSW,202,0.0,0.0,77,0.00,,,0.00,meteohub,2013-01-09 03:07:00,
2013-01-08 21:12:00,31.1,25.0,29.28,SSW,202,0.0,0.0,78,0.00,,,0.00,meteohub,2013-01-09 03:12:00,
2013-01-08 21:17:00,30.9,24.6,29.28,SSW,202,0.0,0.0,77,0.00,,,0.00,meteohub,2013-01-09 03:17:00,
2013-01-08 21:22:00,30.9,24.8,29.28,SSW,202,0.0,0.0,78,0.00,,,0.00,meteohub,2013-01-09 03:22:00,
2013-01-08 21:27:00,30.7,24.6,29.28,SSW,202,0.0,0.0,78,0.00,,,0.00,meteohub,2013-01-09 03:27:00,
2013-01-08 21:32:00,30.6,24.3,29.28,SSW,202,0.0,0.0,77,0.00,,,0.00,meteohub,2013-01-09 03:32:00,
2013-01-08 21:37:00,30.2,24.3,29.28,SSW,202,0.0,0.0,78,0.00,,,0.00,meteohub,2013-01-09 03:37:00,
2013-01-08 21:42:00,30.0,24.1,29.28,South,180,0.0,0.0,78,0.00,,,0.00,meteohub,2013-01-09 03:42:00,
2013-01-08 21:47:00,29.8,23.9,29.28,South,180,0.0,0.0,78,0.00,,,0.00,meteohub,2013-01-09 03:47:00,
2013-01-08 21:52:00,29.8,23.9,29.28,South,180,0.0,0.0,78,0.00,,,0.00,meteohub,2013-01-09 03:52:00,
2013-01-08 21:57:00,30.0,24.3,29.28,South,180,0.0,0.0,79,0.00,,,0.00,meteohub,2013-01-09 03:57:00,
2013-01-08 22:02:00,30.4,24.6,29.28,South,180,0.0,0.0,79,0.00,,,0.00,meteohub,2013-01-09 04:02:00,
2013-01-08 22:07:00,30.9,25.5,29.28,South,180,0.0,0.0,80,0.00,,,0.00,meteohub,2013-01-09 04:07:00,
2013-01-08 22:12:00,31.1,25.7,29.28,SSE,158,0.0,0.0,80,0.00,,,0.00,meteohub,2013-01-09 04:12:00,
2013-01-08 22:17:00,31.3,25.9,29.28,South,180,0.0,2.0,80,0.00,,,0.00,meteohub,2013-01-09 04:17:00,
2013-01-08 22:22:00,31.5,26.1,29.28,South,180,0.0,2.0,80,0.00,,,0.00,meteohub,2013-01-09 04:22:00,
2013-01-08 22:27:00,31.5,26.1,29.28,South,180,0.0,0.0,80,0.00,,,0.00,meteohub,2013-01-09 04:27:00,
2013-01-08 22:32:00,31.3,25.9,29.25,South,180,0.0,1.0,80,0.00,,,0.00,meteohub,2013-01-09 04:32:00,
2013-01-08 22:37:00,31.5,26.1,29.25,South,180,0.0,2.0,80,0.00,,,0.00,meteohub,2013-01-09 04:37:00,
2013-01-08 22:42:00,31.5,26.1,29.25,South,180,3.0,3.0,80,0.00,,,0.00,meteohub,2013-01-09 04:42:00,
2013-01-08 22:47:00,31.6,26.2,29.25,South,180,0.0,3.0,80,0.00,,,0.00,meteohub,2013-01-09 04:47:00,
2013-01-08 22:52:00,31.8,26.4,29.25,South,180,0.0,3.0,80,0.00,,,0.00,meteohub,2013-01-09 04:52:00,
2013-01-08 22:57:00,32.0,26.6,29.25,South,180,0.0,3.0,80,0.00,,,0.00,meteohub,2013-01-09 04:57:00,
2013-01-08 23:00:00,32.0,26.8,29.25,South,180,0.0,3.0,81,0.00,,,0.00,meteohub,2013-01-09 05:00:00,
2013-01-08 23:02:00,32.0,26.8,29.25,South,180,0.0,2.0,81,0.00,,,0.00,meteohub,2013-01-09 05:02:00,
2013-01-08 23:04:00,32.2,26.8,29.25,South,180,0.0,2.0,80,0.00,,,0.00,meteohub,2013-01-09 05:04:00,
2013-01-08 23:09:00,32.2,26.8,29.25,South,180,0.0,1.0,80,0.00,,,0.00,meteohub,2013-01-09 05:09:00,
2013-01-08 23:14:00,32.0,26.2,29.25,SE,135,0.0,2.0,79,0.00,,,0.00,meteohub,2013-01-09 05:14:00,
2013-01-08 23:19:00,31.5,25.7,29.25,SSE,158,0.0,2.0,79,0.00,,,0.00,meteohub,2013-01-09 05:19:00,
2013-01-08 23:25:00,31.3,25.5,29.25,SE,135,0.0,2.0,79,0.00,,,0.00,meteohub,2013-01-09 05:25:00,
2013-01-08 23:30:00,31.5,26.1,29.25,South,180,2.0,2.0,80,0.00,,,0.00,meteohub,2013-01-09 05:30:00,
2013-01-08 23:35:00,31.6,26.2,29.25,South,180,0.0,2.0,80,0.00,,,0.00,meteohub,2013-01-09 05:35:00,
2013-01-08 23:40:00,31.8,26.4,29.25,South,180,0.0,2.0,80,0.00,,,0.00,meteohub,2013-01-09 05:40:00,
2013-01-08 23:45:00,32.0,26.6,29.25,South,180,0.0,1.0,80,0.00,,,0.00,meteohub,2013-01-09 05:45:00,
2013-01-08 23:50:00,31.8,26.4,29.25,South,180,0.0,0.0,80,0.00,,,0.00,meteohub,2013-01-09 05:50:00,
2013-01-08 23:55:00,31.6,26.2,29.25,South,180,0.0,0.0,80,0.00,,,0.00,meteohub,2013-01-09 05:55:00,